Time;durP1;ratioP1;P1;durP2;ratioP2;P2;SDS_P1;SDS_P2;PMS_P1;PMS_P2;Temp;Humidity;BMP_temperature;BMP_pressure;BME280_temperature;BME280_humidity;BME280_pressure;Samples;Min_cycle;Max_cycle;Signal;HPM_P1;HPM_P2
2023/03/13 00:02:09;;;;;;;34.70;6.43;;;9.90;99.90;;;;;;5014697;28;20045;-73
2023/03/13 00:04:35;;;;;;;24.80;5.63;;;;;;;;;;5030953;28;20045;-73
2023/03/13 00:07:01;;;;;;;35.83;7.15;;;10.00;99.90;;;;;;5030911;28;20049;-73
2023/03/13 00:09:27;;;;;;;31.10;7.10;;;;;;;;;;5030889;28;20163;-74
2023/03/13 00:11:53;;;;;;;34.17;7.22;;;;;;;;;;5014252;28;20421;-73
2023/03/13 00:14:19;;;;;;;30.10;5.70;;;;;;;;;;5030953;28;20053;-73
2023/03/13 00:16:45;;;;;;;36.22;6.95;;;9.80;99.90;;;;;;5014368;28;20041;-73
2023/03/13 00:19:10;;;;;;;31.15;6.85;;;9.90;99.90;;;;;;5030697;28;20079;-73
2023/03/13 00:21:37;;;;;;;33.50;7.22;;;;;;;;;;5030791;28;20037;-73
2023/03/13 00:24:03;;;;;;;42.33;8.05;;;9.80;99.90;;;;;;5032052;28;20041;-73
2023/03/13 00:26:29;;;;;;;39.60;7.32;;;;;;;;;;5014100;28;20051;-73
2023/03/13 00:28:56;;;;;;;39.45;8.27;;;;;;;;;;5030623;28;20041;-73
2023/03/13 00:31:29;;;;;;;38.40;6.97;;;9.80;99.90;;;;;;5030668;28;20299;-73
2023/03/13 00:33:59;;;;;;;38.05;7.53;;;9.70;99.90;;;;;;5030885;28;20041;-73
2023/03/13 00:36:27;;;;;;;33.60;6.22;;;9.90;99.90;;;;;;5030167;28;20033;-73
2023/03/13 00:38:54;;;;;;;30.98;7.55;;;9.90;99.90;;;;;;5014112;28;20045;-73
2023/03/13 00:41:22;;;;;;;34.45;6.95;;;9.70;99.90;;;;;;5030474;28;20041;-73
2023/03/13 00:43:48;;;;;;;36.22;7.35;;;9.90;99.90;;;;;;5013832;28;20045;-73
2023/03/13 00:46:16;;;;;;;40.25;8.57;;;9.90;99.90;;;;;;5030575;28;20049;-73
2023/03/13 00:48:42;;;;;;;38.80;7.95;;;;;;;;;;5030219;28;20042;-73
2023/03/13 00:51:08;;;;;;;40.95;7.32;;;10.00;99.90;;;;;;5030357;28;20041;-73
2023/03/13 00:53:35;;;;;;;31.45;6.78;;;;;;;;;;5013973;28;20071;-73
2023/03/13 00:56:01;;;;;;;38.83;8.00;;;;;;;;;;5030360;28;20040;-73
2023/03/13 00:58:28;;;;;;;27.83;6.57;;;9.90;99.90;;;;;;5030231;28;20162;-73
2023/03/13 01:00:55;;;;;;;38.15;8.52;;;;;;;;;;5013775;28;20049;-73
2023/03/13 01:03:24;;;;;;;34.22;7.28;;;9.90;99.90;;;;;;5013896;28;20056;-73
2023/03/13 01:06:00;;;;;;;36.15;8.30;;;;;;;;;;5030524;28;20412;-74
2023/03/13 01:08:27;;;;;;;39.60;8.30;;;9.90;99.90;;;;;;5030059;28;20038;-73
2023/03/13 01:11:00;;;;;;;34.00;9.52;;;9.90;99.90;;;;;;5030186;28;20041;-73
2023/03/13 01:13:26;;;;;;;26.08;6.30;;;;;;;;;;5029972;28;20061;-73
2023/03/13 01:15:52;;;;;;;46.40;8.70;;;9.90;99.90;;;;;;5030294;28;20045;-73
2023/03/13 01:18:18;;;;;;;41.25;7.55;;;;;;;;;;5030014;28;20045;-73
2023/03/13 01:20:43;;;;;;;40.25;7.47;;;10.20;99.90;;;;;;5013843;28;20429;-73
2023/03/13 01:23:09;;;;;;;35.22;7.32;;;10.10;99.90;;;;;;5029868;28;20052;-73
2023/03/13 01:25:36;;;;;;;43.33;8.68;;;9.80;99.90;;;;;;5030121;28;20064;-73
2023/03/13 01:28:03;;;;;;;46.17;9.60;;;10.20;99.90;;;;;;5031061;28;20084;-73
2023/03/13 01:30:28;;;;;;;34.60;9.07;;;10.10;99.90;;;;;;5030181;28;20041;-73
2023/03/13 01:32:54;;;;;;;34.17;7.70;;;9.90;99.90;;;;;;5029799;28;20040;-73
2023/03/13 01:35:20;;;;;;;38.22;7.55;;;10.10;99.90;;;;;;5013569;28;20045;-73
2023/03/13 01:37:46;;;;;;;36.35;7.30;;;;;;;;;;5013677;28;20048;-73
2023/03/13 01:40:12;;;;;;;35.95;7.55;;;;;;;;;;5030130;28;20121;-73
2023/03/13 01:42:54;;;;;;;36.42;7.75;;;10.10;99.90;;;;;;5029647;28;20054;-73
2023/03/13 01:45:57;;;;;;;39.90;7.30;;;10.20;99.90;;;;;;5030134;28;20037;-73
2023/03/13 01:48:30;;;;;;;31.73;7.07;;;10.20;99.90;;;;;;5030787;28;20045;-73
2023/03/13 01:50:59;;;;;;;31.35;7.18;;;10.00;99.90;;;;;;5033518;28;20250;-73
2023/03/13 01:53:27;;;;;;;42.45;7.85;;;10.10;99.90;;;;;;5033609;28;20087;-73
2023/03/13 01:55:53;;;;;;;30.13;8.10;;;10.20;99.90;;;;;;5033552;28;20120;-73
2023/03/13 01:58:19;;;;;;;38.78;9.05;;;10.20;99.90;;;;;;5033343;28;20061;-73
2023/03/13 02:00:45;;;;;;;29.10;7.80;;;10.20;99.90;;;;;;5033373;28;20038;-73
2023/03/13 02:03:15;;;;;;;26.75;7.00;;;10.10;99.90;;;;;;5033146;28;20041;-73
2023/03/13 02:05:42;;;;;;;28.95;7.43;;;10.20;99.90;;;;;;5016904;28;20056;-73
2023/03/13 02:08:19;;;;;;;31.85;7.30;;;10.10;99.90;;;;;;5033249;28;20045;-73
2023/03/13 02:11:30;;;;;;;31.33;7.35;;;10.20;99.90;;;;;;5033618;28;20385;-73
2023/03/13 02:13:57;;;;;;;36.30;9.75;;;10.30;99.90;;;;;;4980260;28;20061;-73
2023/03/13 02:16:23;;;;;;;32.22;7.88;;;;;;;;;;4977753;28;20056;-73
2023/03/13 02:18:49;;;;;;;23.60;6.95;;;;;;;;;;5004424;28;20132;-73
2023/03/13 02:21:28;;;;;;;24.27;8.00;;;10.40;99.90;;;;;;5033014;28;20045;-73
2023/03/13 02:24:20;;;;;;;26.17;7.72;;;10.20;99.90;;;;;;5033349;28;20042;-73
2023/03/13 02:26:46;;;;;;;27.90;6.57;;;10.10;99.90;;;;;;5032797;28;20095;-73
2023/03/13 02:29:17;;;;;;;28.70;7.32;;;;;;;;;;5016428;28;20401;-73
2023/03/13 02:31:47;;;;;;;21.08;6.70;;;10.50;99.90;;;;;;5032872;28;20401;-73
2023/03/13 02:34:18;;;;;;;19.08;6.40;;;10.20;99.90;;;;;;5032842;28;20029;-73
2023/03/13 02:36:45;;;;;;;24.20;5.90;;;10.40;99.90;;;;;;5032621;28;20091;-73
2023/03/13 02:39:12;;;;;;;18.52;5.60;;;10.60;99.90;;;;;;5033942;28;20488;-73
2023/03/13 02:41:40;;;;;;;20.65;6.40;;;10.50;99.90;;;;;;5032393;28;20128;-73
2023/03/13 02:44:07;;;;;;;23.40;6.40;;;;;;;;;;5016167;28;20120;-74
2023/03/13 02:46:44;;;;;;;18.17;7.43;;;;;;;;;;5016040;28;20045;-74
2023/03/13 02:49:30;;;;;;;13.02;6.05;;;;;;;;;;5016053;28;20045;-73
2023/03/13 02:52:06;;;;;;;16.95;6.13;;;;;;;;;;5032432;28;20048;-73
2023/03/13 02:54:36;;;;;;;14.73;5.70;;;10.70;99.90;;;;;;5033905;28;20037;-73
2023/03/13 02:57:03;;;;;;;18.17;5.80;;;;;;;;;;5032375;28;20037;-73
2023/03/13 02:59:29;;;;;;;20.20;6.85;;;10.60;99.90;;;;;;5031832;28;20076;-73
2023/03/13 03:01:54;;;;;;;15.20;5.35;;;10.50;99.90;;;;;;5032184;28;20278;-73
2023/03/13 03:04:25;;;;;;;12.07;5.05;;;10.70;99.90;;;;;;5032276;28;20033;-73
2023/03/13 03:06:51;;;;;;;16.42;5.43;;;10.40;99.90;;;;;;5032157;28;20133;-73
2023/03/13 03:09:18;;;;;;;14.13;5.28;;;10.70;99.90;;;;;;5032112;28;20124;-73
2023/03/13 03:11:43;;;;;;;12.77;5.43;;;10.70;99.90;;;;;;5031924;28;20037;-73
2023/03/13 03:14:10;;;;;;;12.63;5.50;;;10.80;99.90;;;;;;5032181;28;20128;-73
2023/03/13 03:16:36;;;;;;;9.95;5.35;;;;;;;;;;5031901;28;20124;-73
2023/03/13 03:19:02;;;;;;;13.50;5.30;;;;;;;;;;5031954;28;20053;-73
2023/03/13 03:21:28;;;;;;;14.40;5.93;;;;;;;;;;5031953;28;20041;-72
2023/03/13 03:23:54;;;;;;;11.20;5.50;;;10.80;99.90;;;;;;5031882;28;20045;-73
2023/03/13 03:26:19;;;;;;;12.90;7.25;;;11.00;99.90;;;;;;5031668;28;20060;-73
2023/03/13 03:28:45;;;;;;;13.20;5.65;;;10.50;99.90;;;;;;5031753;28;20461;-73
2023/03/13 03:31:13;;;;;;;12.93;5.68;;;11.00;99.90;;;;;;5031696;28;20128;-73
2023/03/13 03:33:40;;;;;;;9.48;5.22;;;10.80;99.90;;;;;;5031516;28;20045;-73
2023/03/13 03:36:12;;;;;;;12.20;5.32;;;10.90;99.90;;;;;;5031802;28;20034;-73
2023/03/13 03:38:38;;;;;;;9.30;4.72;;;10.90;99.90;;;;;;5015361;28;20045;-73
2023/03/13 03:41:05;;;;;;;9.55;5.70;;;;;;;;;;5031750;28;20049;-72
2023/03/13 03:43:31;;;;;;;11.15;5.75;;;;;;;;;;5031183;28;20142;-73
2023/03/13 03:45:56;;;;;;;11.30;6.15;;;11.20;99.90;;;;;;5014966;28;20049;-73
2023/03/13 03:48:22;;;;;;;11.70;5.80;;;11.10;99.90;;;;;;5031253;28;20386;-73
2023/03/13 03:50:48;;;;;;;8.73;5.55;;;;;;;;;;5031308;28;20143;-73
2023/03/13 03:53:14;;;;;;;12.02;6.20;;;;;;;;;;5031085;28;20087;-74
2023/03/13 03:55:40;;;;;;;11.60;6.72;;;;;;;;;;5031455;28;20049;-74
2023/03/13 03:58:06;;;;;;;10.82;5.95;;;10.80;99.90;;;;;;5031092;28;20562;-73
2023/03/13 04:00:31;;;;;;;9.10;5.97;;;11.20;99.90;;;;;;5031182;28;20044;-73
2023/03/13 04:02:57;;;;;;;13.10;7.22;;;;;;;;;;5031004;28;20412;-73
2023/03/13 04:05:23;;;;;;;11.27;7.35;;;;;;;;;;5014680;28;20044;-73
2023/03/13 04:07:49;;;;;;;12.07;7.53;;;11.30;99.90;;;;;;5031185;28;20045;-73
2023/03/13 04:10:15;;;;;;;14.57;8.30;;;11.60;99.90;;;;;;5014180;28;20037;-73
2023/03/13 04:12:41;;;;;;;21.30;9.02;;;;;;;;;;5030300;28;20548;-73
2023/03/13 04:15:07;;;;;;;16.70;10.43;;;;;;;;;;5031036;28;20159;-73
2023/03/13 04:17:33;;;;;;;24.25;11.48;;;11.70;99.90;;;;;;5030828;28;20037;-73
2023/03/13 04:19:59;;;;;;;20.73;10.32;;;11.40;99.90;;;;;;5014282;28;20052;-73
2023/03/13 04:22:25;;;;;;;21.60;12.48;;;;;;;;;;5030674;28;20048;-73
2023/03/13 04:24:51;;;;;;;22.98;12.23;;;;;;;;;;5030734;28;20041;-73
2023/03/13 04:27:17;;;;;;;26.90;13.15;;;12.00;99.90;;;;;;5014035;28;20045;-73
2023/03/13 04:29:43;;;;;;;25.95;11.98;;;;;;;;;;5014078;28;20048;-73
2023/03/13 04:32:09;;;;;;;20.08;12.45;;;11.80;99.90;;;;;;5014388;28;20037;-73
2023/03/13 04:34:34;;;;;;;31.00;11.70;;;12.00;99.90;;;;;;5030360;28;20044;-73
2023/03/13 04:37:00;;;;;;;22.17;12.50;;;11.80;99.90;;;;;;5030569;28;20465;-73
2023/03/13 04:39:26;;;;;;;20.95;10.82;;;12.40;99.90;;;;;;5014462;28;20030;-74
2023/03/13 04:41:52;;;;;;;23.05;11.48;;;;;;;;;;5030504;28;20156;-73
2023/03/13 04:44:18;;;;;;;24.20;11.73;;;11.80;99.90;;;;;;5030560;28;20041;-74
2023/03/13 04:46:44;;;;;;;26.98;11.02;;;12.10;99.90;;;;;;5030371;28;20508;-73
2023/03/13 04:49:09;;;;;;;25.70;10.25;;;12.00;99.90;;;;;;5030295;28;20492;-73
2023/03/13 04:51:35;;;;;;;23.10;10.55;;;;;;;;;;5013964;28;20040;-74
2023/03/13 04:54:01;;;;;;;23.77;10.63;;;12.10;99.90;;;;;;5013930;28;20072;-74
2023/03/13 04:56:27;;;;;;;25.92;10.50;;;;;;;;;;5030233;28;20057;-74
2023/03/13 04:58:53;;;;;;;20.77;9.20;;;;;;;;;;5030552;28;20046;-74
2023/03/13 05:01:20;;;;;;;18.58;10.05;;;;;;;;;;5013774;28;20045;-73
2023/03/13 05:03:46;;;;;;;16.23;9.38;;;;;;;;;;5029997;28;20049;-73
2023/03/13 05:06:12;;;;;;;22.55;9.40;;;;;;;;;;5030273;28;20052;-73
2023/03/13 05:08:38;;;;;;;20.90;8.15;;;;;;;;;;5029983;28;20045;-73
2023/03/13 05:11:04;;;;;;;26.90;8.88;;;;;;;;;;5030116;28;20044;-73
2023/03/13 05:13:32;;;;;;;21.80;7.60;;;;;;;;;;5013453;28;20056;-73
2023/03/13 05:16:00;;;;;;;18.30;6.85;;;;;;;;;;5030216;28;20038;-73
2023/03/13 05:18:25;;;;;;;13.30;7.47;;;12.30;99.90;;;;;;5030186;28;20042;-73
2023/03/13 05:20:51;;;;;;;17.08;6.72;;;;;;;;;;5030144;28;20201;-73
2023/03/13 05:23:17;;;;;;;17.63;6.60;;;;;;;;;;5016142;28;20072;-73
2023/03/13 05:25:43;;;;;;;18.23;6.18;;;;;;;;;;5017845;28;20076;-73
2023/03/13 05:28:09;;;;;;;13.88;6.45;;;;;;;;;;5017258;28;20045;-73
2023/03/13 05:30:35;;;;;;;17.00;6.70;;;12.60;99.90;;;;;;5034487;28;20386;-73
2023/03/13 05:33:01;;;;;;;16.08;6.35;;;;;;;;;;5033741;28;20048;-74
2023/03/13 05:35:27;;;;;;;18.25;6.05;;;;;;;;;;5033661;28;20462;-74
2023/03/13 05:37:53;;;;;;;19.58;6.43;;;;;;;;;;5033999;28;20042;-74
2023/03/13 05:40:19;;;;;;;18.50;7.40;;;;;;;;;;5033969;28;20049;-74
2023/03/13 05:42:46;;;;;;;20.58;6.35;;;12.90;99.90;;;;;;5033585;28;20070;-73
2023/03/13 05:45:11;;;;;;;21.27;6.97;;;12.90;99.90;;;;;;5017239;28;20034;-74
2023/03/13 05:47:38;;;;;;;18.58;6.20;;;;;;;;;;5033875;28;20051;-74
2023/03/13 05:50:05;;;;;;;16.00;5.72;;;13.40;99.90;;;;;;5033600;28;20108;-74
2023/03/13 05:52:31;;;;;;;22.83;6.45;;;;;;;;;;5033686;28;20042;-73
2023/03/13 05:54:57;;;;;;;24.50;8.07;;;;;;;;;;5033904;28;20516;-73
2023/03/13 05:57:24;;;;;;;35.38;8.07;;;13.30;99.90;;;;;;5016980;28;20459;-74
2023/03/13 05:59:50;;;;;;;23.35;6.45;;;;;;;;;;5033534;28;20116;-73
2023/03/13 06:02:15;;;;;;;27.73;6.90;;;13.10;99.90;;;;;;5033547;28;20128;-74
2023/03/13 06:04:41;;;;;;;15.63;5.40;;;13.50;99.90;;;;;;5033555;28;20040;-73
2023/03/13 06:07:07;;;;;;;19.20;6.35;;;13.30;99.90;;;;;;5033258;28;20041;-73
2023/03/13 06:09:33;;;;;;;22.98;6.75;;;;;;;;;;5033270;28;20037;-74
2023/03/13 06:11:59;;;;;;;20.73;7.22;;;;;;;;;;5032981;28;20053;-74
2023/03/13 06:14:25;;;;;;;21.60;6.30;;;;;;;;;;5033358;28;20045;-74
2023/03/13 06:16:51;;;;;;;15.50;5.82;;;;;;;;;;5033474;28;20405;-75
2023/03/13 06:19:17;;;;;;;13.77;5.55;;;;;;;;;;5016989;28;20199;-73
2023/03/13 06:21:42;;;;;;;17.23;4.93;;;12.90;99.90;;;;;;5016278;28;20038;-74
2023/03/13 06:24:08;;;;;;;18.17;5.13;;;12.80;99.90;;;;;;5033315;28;20409;-74
2023/03/13 06:26:34;;;;;;;18.25;5.70;;;12.80;99.90;;;;;;5032721;28;20131;-74
2023/03/13 06:29:00;;;;;;;17.75;5.15;;;;;;;;;;5034047;28;20100;-74
2023/03/13 06:31:26;;;;;;;20.38;5.45;;;;;;;;;;5032786;28;20038;-73
2023/03/13 06:33:55;;;;;;;22.50;5.70;;;12.80;99.90;;;;;;5033233;28;20042;-75
2023/03/13 06:36:22;;;;;;;17.52;5.85;;;12.60;99.90;;;;;;5032508;28;20505;-73
2023/03/13 06:38:47;;;;;;;18.55;5.25;;;12.70;99.90;;;;;;5032661;28;20045;-74
2023/03/13 06:41:13;;;;;;;17.08;4.82;;;;;;;;;;5032474;28;20046;-73
2023/03/13 06:43:39;;;;;;;18.27;5.72;;;;;;;;;;5015886;28;20080;-74
2023/03/13 06:46:06;;;;;;;12.10;5.60;;;13.20;99.90;;;;;;5032426;28;20132;-72
2023/03/13 06:48:32;;;;;;;21.63;6.22;;;;;;;;;;5032224;28;20076;-72
2023/03/13 06:50:58;;;;;;;17.13;5.50;;;;;;;;;;5032203;28;20141;-73
2023/03/13 06:53:24;;;;;;;19.48;5.13;;;;;;;;;;5032086;28;20124;-72
2023/03/13 06:55:51;;;;;;;19.02;5.05;;;;;;;;;;5032316;28;20037;-72
2023/03/13 06:58:17;;;;;;;14.10;6.30;;;;;;;;;;5032312;28;20444;-72
2023/03/13 07:00:43;;;;;;;22.48;6.07;;;;;;;;;;5032142;28;20037;-73
2023/03/13 07:03:10;;;;;;;23.63;5.70;;;12.60;99.90;;;;;;5032132;28;20049;-73
2023/03/13 07:05:36;;;;;;;10.63;4.53;;;;;;;;;;5032194;28;20037;-71
2023/03/13 07:08:01;;;;;;;21.27;5.82;;;13.10;99.90;;;;;;5031823;28;20053;-72
2023/03/13 07:10:27;;;;;;;16.88;6.45;;;;;;;;;;5031949;28;20034;-73
2023/03/13 07:12:53;;;;;;;12.57;4.22;;;;;;;;;;5015549;28;20041;-74
2023/03/13 07:15:19;;;;;;;21.33;4.70;;;;;;;;;;5015419;28;20044;-72
2023/03/13 07:17:45;;;;;;;16.60;4.78;;;;;;;;;;5032073;28;20801;-72
2023/03/13 07:20:11;;;;;;;15.40;5.30;;;;;;;;;;5031669;28;20056;-72
2023/03/13 07:22:37;;;;;;;14.23;5.00;;;;;;;;;;5031671;28;20409;-72
2023/03/13 07:25:04;;;;;;;16.70;3.92;;;13.30;99.90;;;;;;5031694;28;20041;-72
2023/03/13 07:27:30;;;;;;;18.20;4.55;;;;;;;;;;5031378;28;20045;-73
2023/03/13 07:29:56;;;;;;;21.33;4.47;;;;;;;;;;5031376;28;20090;-73
2023/03/13 07:32:22;;;;;;;16.42;4.47;;;;;;;;;;5031419;28;20033;-72
2023/03/13 07:34:48;;;;;;;16.77;4.28;;;12.60;99.90;;;;;;5014721;28;20045;-72
2023/03/13 07:37:15;;;;;;;13.48;4.50;;;12.70;99.90;;;;;;5031604;28;20053;-72
2023/03/13 07:39:41;;;;;;;10.93;3.72;;;;;;;;;;5031476;28;20559;-73
2023/03/13 07:42:10;;;;;;;16.20;4.35;;;12.90;99.90;;;;;;5031133;28;20041;-72
2023/03/13 07:44:36;;;;;;;12.60;4.50;;;;;;;;;;5031407;28;20129;-72
2023/03/13 07:47:02;;;;;;;16.83;4.72;;;13.10;99.90;;;;;;5030224;28;20136;-72
2023/03/13 07:49:27;;;;;;;13.60;4.13;;;12.50;99.90;;;;;;5014679;28;20041;-72
2023/03/13 07:51:53;;;;;;;19.20;6.15;;;;;;;;;;5014588;28;20038;-73
2023/03/13 07:54:19;;;;;;;16.88;4.55;;;;;;;;;;5031385;28;20128;-73
2023/03/13 07:56:46;;;;;;;12.23;3.85;;;;;;;;;;5031012;28;20068;-72
2023/03/13 07:59:11;;;;;;;12.38;3.70;;;;;;;;;;5014596;28;20041;-72
2023/03/13 08:01:37;;;;;;;12.65;3.15;;;13.10;99.90;;;;;;5030605;28;20516;-72
2023/03/13 08:04:04;;;;;;;9.65;3.63;;;;;;;;;;5032770;28;20132;-72
2023/03/13 08:06:31;;;;;;;13.43;4.00;;;13.20;99.90;;;;;;5030708;28;20044;-72
2023/03/13 08:08:58;;;;;;;12.60;3.67;;;13.00;99.90;;;;;;5030854;28;20045;-72
2023/03/13 08:11:24;;;;;;;10.13;3.80;;;;;;;;;;5014478;28;20469;-72
2023/03/13 08:13:51;;;;;;;6.40;3.25;;;12.90;99.90;;;;;;5030949;28;20505;-72
2023/03/13 08:16:24;;;;;;;10.30;3.45;;;13.50;99.90;;;;;;5031210;28;20397;-72
2023/03/13 08:18:52;;;;;;;9.38;2.95;;;13.50;99.90;;;;;;5014325;28;20067;-72
2023/03/13 08:21:25;;;;;;;8.88;3.28;;;13.40;99.90;;;;;;5030808;28;20041;-72
2023/03/13 08:23:55;;;;;;;8.50;3.47;;;;;;;;;;5030574;28;20505;-72
2023/03/13 08:26:23;;;;;;;6.47;2.67;;;;;;;;;;5030870;28;20049;-72
2023/03/13 08:28:53;;;;;;;12.63;4.10;;;13.40;99.90;;;;;;5030581;28;20053;-72
2023/03/13 08:31:21;;;;;;;7.18;2.90;;;13.50;99.90;;;;;;5031332;28;20175;-72
2023/03/13 08:33:48;;;;;;;9.73;3.20;;;;;;;;;;5014193;28;20517;-72
2023/03/13 08:36:16;;;;;;;13.25;3.03;;;13.40;99.90;;;;;;5030381;28;20156;-72
2023/03/13 08:38:43;;;;;;;12.07;3.28;;;;;;;;;;5030244;28;20077;-73
2023/03/13 08:41:09;;;;;;;14.35;3.13;;;;;;;;;;5013815;28;20045;-72
2023/03/13 08:43:34;;;;;;;7.28;2.35;;;13.90;99.90;;;;;;5030307;28;20166;-73
2023/03/13 08:46:00;;;;;;;8.30;2.47;;;14.10;99.90;;;;;;5030449;28;20127;-72
2023/03/13 08:48:26;;;;;;;8.52;3.00;;;;;;;;;;5030333;28;20034;-73
2023/03/13 08:51:06;;;;;;;12.48;3.33;;;14.00;99.90;;;;;;5030108;28;20033;-72
2023/03/13 08:53:32;;;;;;;11.18;2.47;;;;;;;;;;5030335;28;20037;-72
2023/03/13 08:55:58;;;;;;;10.23;2.25;;;;;;;;;;5030261;28;20096;-72
2023/03/13 08:58:24;;;;;;;9.43;2.25;;;14.10;99.90;;;;;;5029935;28;20041;-72
2023/03/13 09:00:50;;;;;;;9.68;2.28;;;;;;;;;;5030104;28;20416;-72
2023/03/13 09:03:16;;;;;;;8.30;2.60;;;14.10;99.90;;;;;;5013755;28;20497;-72
2023/03/13 09:05:42;;;;;;;10.30;2.78;;;;;;;;;;5013496;28;20041;-72
2023/03/13 09:08:08;;;;;;;9.75;2.35;;;14.00;99.90;;;;;;5029858;28;20039;-72
2023/03/13 09:10:34;;;;;;;6.88;2.53;;;13.80;99.90;;;;;;5029988;28;20053;-72
2023/03/13 09:13:00;;;;;;;15.23;3.17;;;;;;;;;;5013417;28;20044;-72
2023/03/13 09:15:26;;;;;;;9.05;3.10;;;;;;;;;;5030125;28;20095;-72
2023/03/13 09:17:52;;;;;;;11.50;2.90;;;;;;;;;;5029845;28;20436;-73
2023/03/13 09:20:18;;;;;;;12.55;2.97;;;;;;;;;;5013382;28;20041;-73
2023/03/13 09:22:45;;;;;;;14.05;3.35;;;13.90;99.90;;;;;;5029612;28;20041;-72
2023/03/13 09:25:11;;;;;;;16.45;3.67;;;;;;;;;;5013557;28;20050;-72
2023/03/13 09:27:38;;;;;;;11.20;3.22;;;;;;;;;;5013861;28;20046;-73
2023/03/13 09:30:04;;;;;;;15.73;3.95;;;13.60;99.90;;;;;;5029850;28;20056;-72
2023/03/13 09:32:30;;;;;;;16.40;3.60;;;;;;;;;;5029616;28;20048;-73
2023/03/13 09:34:56;;;;;;;12.55;4.38;;;13.90;99.90;;;;;;5029834;28;20037;-72
2023/03/13 09:37:21;;;;;;;15.50;4.38;;;14.10;99.90;;;;;;5029715;28;20390;-72
2023/03/13 09:39:50;;;;;;;19.05;4.15;;;;;;;;;;5029939;28;20120;-72
2023/03/13 09:42:16;;;;;;;14.82;3.88;;;;;;;;;;5029566;28;20520;-71
2023/03/13 09:44:50;;;;;;;15.63;4.13;;;14.40;99.90;;;;;;5029737;28;20033;-72
2023/03/13 09:47:37;;;;;;;15.95;3.35;;;14.40;99.90;;;;;;5013185;28;20052;-72
2023/03/13 09:50:12;;;;;;;14.82;3.88;;;14.70;99.90;;;;;;5029818;28;20163;-72
2023/03/13 09:52:39;;;;;;;14.68;3.00;;;14.70;99.90;;;;;;5029664;28;20509;-72
2023/03/13 09:55:23;;;;;;;11.75;3.13;;;14.80;99.90;;;;;;5029669;28;20037;-73
2023/03/13 09:57:56;;;;;;;20.58;3.85;;;;;;;;;;5029702;28;20042;-72
2023/03/13 10:00:27;;;;;;;14.80;3.15;;;14.90;99.90;;;;;;5029688;28;20064;-73
2023/03/13 10:03:11;;;;;;;14.18;3.22;;;14.90;99.90;;;;;;5013180;28;20037;-73
2023/03/13 10:05:47;;;;;;;15.18;3.65;;;15.20;99.90;;;;;;5029597;28;20068;-72
2023/03/13 10:08:23;;;;;;;25.13;4.70;;;15.10;99.90;;;;;;5029728;28;20033;-72
2023/03/13 10:11:31;;;;;;;16.25;4.80;;;15.20;99.90;;;;;;5032794;28;20071;-73
2023/03/13 10:14:06;;;;;;;17.98;3.65;;;15.30;99.90;;;;;;5033112;28;20037;-72
2023/03/13 10:16:43;;;;;;;22.15;4.85;;;15.50;99.90;;;;;;5032959;28;20469;-73
2023/03/13 10:19:17;;;;;;;24.30;4.88;;;15.10;99.90;;;;;;5032944;28;20095;-72
2023/03/13 10:21:48;;;;;;;26.73;4.00;;;15.50;99.90;;;;;;5032528;28;20519;-73
2023/03/13 10:24:23;;;;;;;25.60;4.93;;;15.50;99.90;;;;;;5033160;28;20056;-72
2023/03/13 10:26:48;;;;;;;17.15;3.53;;;15.40;99.90;;;;;;5032545;28;20057;-72
2023/03/13 10:29:29;;;;;;;18.02;3.38;;;15.60;99.90;;;;;;5032939;28;20034;-73
2023/03/13 10:32:03;;;;;;;14.73;3.70;;;15.80;99.90;;;;;;5015982;28;20136;-73
2023/03/13 10:34:43;;;;;;;20.20;4.20;;;15.80;99.90;;;;;;5016153;28;20037;-73
2023/03/13 10:37:14;;;;;;;15.00;3.80;;;15.90;99.90;;;;;;5016051;28;20048;-73
2023/03/13 10:39:40;;;;;;;15.80;3.72;;;;;;;;;;5032594;28;20160;-72
2023/03/13 10:42:30;;;;;;;28.05;4.93;;;15.60;99.90;;;;;;5032306;28;20037;-73
2023/03/13 10:45:00;;;;;;;18.75;3.67;;;15.90;99.90;;;;;;5032505;28;20052;-72
2023/03/13 10:47:31;;;;;;;16.55;3.08;;;15.80;99.90;;;;;;5015744;28;20088;-73
2023/03/13 10:49:57;;;;;;;19.02;4.07;;;15.80;99.90;;;;;;5032506;28;20080;-73
2023/03/13 10:52:30;;;;;;;24.63;5.03;;;16.00;99.90;;;;;;5032145;28;20084;-73
2023/03/13 10:55:04;;;;;;;20.73;4.13;;;16.10;99.90;;;;;;5032377;28;20084;-73
2023/03/13 10:57:50;;;;;;;16.10;3.22;;;16.00;99.90;;;;;;5032108;28;20041;-73
2023/03/13 11:00:37;;;;;;;18.08;4.00;;;16.10;99.90;;;;;;5032309;28;20077;-73
2023/03/13 11:03:30;;;;;;;16.67;3.55;;;15.90;99.90;;;;;;5032189;28;20124;-72
2023/03/13 11:06:01;;;;;;;15.55;3.83;;;16.00;99.90;;;;;;5032092;28;20091;-73
2023/03/13 11:08:33;;;;;;;15.10;3.63;;;16.00;99.90;;;;;;5031809;28;20124;-73
2023/03/13 11:11:01;;;;;;;11.23;3.08;;;16.30;99.90;;;;;;5032302;28;20120;-73
2023/03/13 11:13:28;;;;;;;15.63;4.53;;;16.10;99.90;;;;;;5031841;28;20037;-74
2023/03/13 11:15:58;;;;;;;13.68;2.55;;;16.00;99.90;;;;;;5015536;28;20124;-72
2023/03/13 11:18:47;;;;;;;10.30;3.20;;;16.30;99.90;;;;;;5015172;28;20052;-72
2023/03/13 11:21:29;;;;;;;11.48;2.75;;;16.50;99.90;;;;;;5031587;28;20037;-73
2023/03/13 11:24:13;;;;;;;9.88;2.40;;;16.50;99.90;;;;;;5015972;28;20045;-74
2023/03/13 11:27:11;;;;;;;16.98;3.17;;;16.50;99.90;;;;;;5015055;28;20127;-74
2023/03/13 11:30:01;;;;;;;10.95;3.15;;;16.40;99.90;;;;;;5027098;28;20049;-74
2023/03/13 11:32:41;;;;;;;10.95;2.83;;;16.10;99.90;;;;;;5075056;22;20181;-70
2023/03/13 11:35:35;;;;;;;21.15;3.58;;;16.20;99.90;;;;;;5053959;28;20170;-70
2023/03/13 11:38:07;;;;;;;11.27;2.53;;;16.20;99.90;;;;;;5055095;28;20504;-70
2023/03/13 11:40:45;;;;;;;15.25;3.65;;;16.20;99.90;;;;;;5055238;28;20044;-70
2023/03/13 11:43:31;;;;;;;17.75;4.65;;;16.40;99.90;;;;;;5038031;28;20036;-70
2023/03/13 11:46:06;;;;;;;17.55;4.15;;;16.00;99.90;;;;;;5055025;28;20045;-70
2023/03/13 11:49:04;;;;;;;10.98;2.25;;;16.30;99.90;;;;;;5054521;28;20083;-70
2023/03/13 11:52:08;;;;;;;12.00;3.20;;;16.10;99.90;;;;;;5017044;28;20131;-70
2023/03/13 11:55:04;;;;;;;13.88;3.03;;;16.00;99.90;;;;;;5054949;28;20041;-70
2023/03/13 11:58:01;;;;;;;19.65;3.50;;;15.90;99.90;;;;;;5054777;28;20040;-71
2023/03/13 12:00:46;;;;;;;10.18;2.85;;;15.80;99.90;;;;;;5072643;28;20100;-71
2023/03/13 12:03:19;;;;;;;18.10;4.07;;;15.80;99.90;;;;;;5072261;28;20091;-71
2023/03/13 12:05:57;;;;;;;14.68;3.63;;;16.10;99.90;;;;;;5054332;28;20503;-71
2023/03/13 12:08:31;;;;;;;13.00;4.50;;;16.70;99.90;;;;;;5037883;28;20048;-71
2023/03/13 12:11:26;;;;;;;16.77;3.00;;;15.90;99.90;;;;;;5054149;28;20044;-71
2023/03/13 12:13:55;;;;;;;28.90;4.15;;;16.00;99.90;;;;;;5069445;28;20084;-71
2023/03/13 12:16:33;;;;;;;20.50;4.05;;;16.30;99.90;;;;;;5054274;28;20055;-71
2023/03/13 12:18:59;;;;;;;25.35;5.22;;;16.20;99.90;;;;;;5055629;28;20083;-71
2023/03/13 12:21:35;;;;;;;25.08;3.97;;;16.30;99.90;;;;;;5053928;28;20120;-71
2023/03/13 12:24:20;;;;;;;19.30;4.55;;;16.20;99.90;;;;;;5037816;28;20052;-71
2023/03/13 12:27:10;;;;;;;15.38;3.88;;;16.00;99.90;;;;;;5071852;28;20051;-71
2023/03/13 12:29:47;;;;;;;16.67;4.05;;;15.90;99.90;;;;;;5053816;28;20465;-71
2023/03/13 12:32:25;;;;;;;17.20;3.47;;;16.10;99.90;;;;;;5053209;28;20033;-70
2023/03/13 12:35:03;;;;;;;17.13;3.78;;;15.90;99.90;;;;;;5053565;28;20039;-71
2023/03/13 12:37:38;;;;;;;11.68;3.10;;;16.00;99.90;;;;;;5053904;28;20044;-71
2023/03/13 12:40:09;;;;;;;18.08;4.30;;;16.10;99.90;;;;;;5072206;28;20041;-70
2023/03/13 12:42:54;;;;;;;16.98;3.90;;;15.80;99.90;;;;;;5053837;28;20500;-72
2023/03/13 12:45:23;;;;;;;17.98;4.80;;;16.00;99.90;;;;;;5053799;28;20042;-71
2023/03/13 12:48:04;;;;;;;14.05;3.28;;;16.60;99.90;;;;;;5053771;28;20167;-71
2023/03/13 12:50:56;;;;;;;18.23;5.50;;;16.20;99.90;;;;;;5036963;28;20044;-72
2023/03/13 12:53:25;;;;;;;17.45;5.50;;;16.20;99.90;;;;;;5053342;28;20036;-71
2023/03/13 12:55:56;;;;;;;22.80;4.30;;;16.20;99.90;;;;;;5053716;28;20044;-71
2023/03/13 12:58:22;;;;;;;21.58;4.63;;;;;;;;;;5053803;28;20396;-71
2023/03/13 13:00:50;;;;;;;19.80;4.38;;;16.30;99.90;;;;;;5036878;28;20136;-71
2023/03/13 13:03:32;;;;;;;21.35;5.43;;;16.10;99.90;;;;;;5053358;28;20056;-71
2023/03/13 13:06:00;;;;;;;26.65;5.10;;;16.20;99.90;;;;;;5053523;28;20040;-71
2023/03/13 13:08:27;;;;;;;25.30;6.05;;;;;;;;;;5053350;28;20049;-71
2023/03/13 13:10:53;;;;;;;28.40;5.70;;;;;;;;;;5053575;28;20052;-71
2023/03/13 13:13:32;;;;;;;23.17;4.22;;;15.90;99.90;;;;;;5053293;28;20067;-71
2023/03/13 13:16:06;;;;;;;25.17;4.97;;;15.80;99.90;;;;;;5071915;28;20036;-71
2023/03/13 13:18:33;;;;;;;17.10;4.72;;;15.90;99.90;;;;;;5053387;28;20117;-71
2023/03/13 13:21:02;;;;;;;24.10;4.70;;;15.80;99.90;;;;;;5053600;28;20036;-71
2023/03/13 13:23:32;;;;;;;22.30;4.07;;;;;;;;;;5053269;28;20048;-71
2023/03/13 13:26:32;;;;;;;21.88;4.60;;;15.90;99.90;;;;;;5053024;28;20480;-71
2023/03/13 13:29:10;;;;;;;22.40;6.45;;;15.90;99.90;;;;;;5052680;28;20056;-71
2023/03/13 13:31:50;;;;;;;19.90;5.00;;;15.90;99.90;;;;;;5052944;28;20051;-70